EmailTwitter


Observations de surface / France / LFBO (07630)

Régions: Québec | Canada | États-Unis | Europe | France | UK | Ailleurs
Station
Affichage
Infos & localisation pour LFBO (07630) | Aide pour décoder les METARs

Observations prises le 2019-11-13 à 04H30 UTC à TOULOUSE/BLAGNAC, FR (LFBO)

Etat du ciel: partiellement nuageux.

Température: 8.0 Celsius

Point de rosée: 8.0 Celsius

Humidité relative: 100%

Vents: Sud-ouest à 4 km/h ou 2 noeuds.

Pression au niveau moyen de la mer: 100.60 kilopascals.

Visibilité horizontale: 6.21 milles terrestres ou 9.94 kilomètres.

Hauteur du plafond: 1402 mètres ( 4600 pieds ).

Observation METAR:

LFBO 130430Z AUTO 22002KT 9999 FEW007 SCT040 BKN046 08/08 Q1006 TEMPO 1500 BR

BKN002=